Time;durP1;ratioP1;P1;durP2;ratioP2;P2;SDS_P1;SDS_P2;PMS_P1;PMS_P2;Temp;Humidity;BMP_temperature;BMP_pressure;BME280_temperature;BME280_humidity;BME280_pressure;Samples;Min_cycle;Max_cycle;Signal;HPM_P1;HPM_P2
2022/08/07 04:04:22;;;;;;;1.83;1.73;;;14.80;99.30;;;;;;5596842;23;20534;-68
2022/08/07 04:06:47;;;;;;;1.60;1.60;;;14.80;98.90;;;;;;5012979;28;20464;-68
2022/08/07 04:09:14;;;;;;;1.97;1.67;;;14.90;98.60;;;;;;5013248;28;20419;-67
2022/08/07 04:11:40;;;;;;;1.87;1.77;;;14.90;98.70;;;;;;5012823;28;20248;-68
2022/08/07 04:14:07;;;;;;;1.90;1.80;;;15.00;98.90;;;;;;5006668;28;20484;-68
2022/08/07 04:16:33;;;;;;;2.13;2.03;;;15.00;98.80;;;;;;4997595;28;20420;-69
2022/08/07 04:19:02;;;;;;;2.03;1.93;;;15.00;99.00;;;;;;4997539;28;20449;-68
2022/08/07 04:21:28;;;;;;;1.77;1.70;;;15.00;99.00;;;;;;4997357;28;20445;-68
2022/08/07 04:23:54;;;;;;;1.90;1.80;;;15.00;99.10;;;;;;4996748;28;20982;-68
2022/08/07 04:26:20;;;;;;;2.13;2.03;;;15.00;99.30;;;;;;4996631;28;20636;-71
2022/08/07 04:28:45;;;;;;;2.80;2.10;;;15.00;99.60;;;;;;4997002;28;20413;-69
2022/08/07 04:31:12;;;;;;;2.40;2.20;;;15.00;99.40;;;;;;4997012;28;20188;-67
2022/08/07 04:33:39;;;;;;;1.90;1.80;;;15.00;99.30;;;;;;4995675;28;20195;-69
2022/08/07 04:36:07;;;;;;;2.47;2.20;;;15.00;99.40;;;;;;4996726;28;20426;-67
2022/08/07 04:38:34;;;;;;;2.10;2.00;;;15.00;99.30;;;;;;4995441;28;20442;-68
2022/08/07 04:41:00;;;;;;;4.70;2.07;;;15.00;99.30;;;;;;4996468;28;20441;-68
2022/08/07 04:43:36;;;;;;;2.07;1.97;;;15.20;99.30;;;;;;4996356;28;20425;-69
2022/08/07 04:46:05;;;;;;;1.57;1.47;;;15.40;98.90;;;;;;4996773;28;20225;-68
2022/08/07 04:48:45;;;;;;;1.67;1.60;;;15.60;98.40;;;;;;4996764;28;20403;-69
2022/08/07 04:51:29;;;;;;;1.80;1.70;;;15.90;97.50;;;;;;4996847;28;20930;-68
2022/08/07 04:54:27;;;;;;;1.90;1.80;;;16.20;96.70;;;;;;4996015;28;20478;-69
2022/08/07 04:57:02;;;;;;;2.07;1.97;;;16.50;96.50;;;;;;4996630;28;20406;-68
2022/08/07 04:59:51;;;;;;;3.03;1.87;;;16.90;95.20;;;;;;4996551;28;20405;-68
2022/08/07 05:02:25;;;;;;;1.63;1.43;;;17.40;94.00;;;;;;4996655;28;20858;-67
2022/08/07 05:05:18;;;;;;;2.63;2.13;;;17.80;92.90;;;;;;4996327;28;20813;-68
2022/08/07 05:07:59;;;;;;;2.50;2.40;;;18.10;92.30;;;;;;4996578;28;20770;-69
2022/08/07 05:10:36;;;;;;;1.67;1.67;;;18.10;91.60;;;;;;4996395;28;20487;-68
2022/08/07 05:13:19;;;;;;;2.27;2.17;;;18.10;91.60;;;;;;4995889;28;20411;-68
2022/08/07 05:15:50;;;;;;;2.00;1.90;;;17.90;91.70;;;;;;4997857;28;20494;-68
2022/08/07 05:18:24;;;;;;;2.67;2.43;;;17.80;91.90;;;;;;4996362;28;20427;-69
2022/08/07 05:20:54;;;;;;;1.93;1.83;;;17.70;92.40;;;;;;4996665;28;20484;-68
2022/08/07 05:23:46;;;;;;;2.07;1.97;;;17.80;92.60;;;;;;4996039;28;20506;-69
2022/08/07 05:26:19;;;;;;;1.63;1.53;;;17.80;93.00;;;;;;4992049;28;20461;-68
2022/08/07 05:28:49;;;;;;;2.30;2.20;;;17.80;93.00;;;;;;4995876;28;20761;-68
2022/08/07 05:31:20;;;;;;;1.60;1.60;;;18.00;92.90;;;;;;4995709;28;20422;-67
2022/08/07 05:33:49;;;;;;;1.63;1.60;;;18.00;92.90;;;;;;4995238;28;20967;-69
2022/08/07 05:36:16;;;;;;;2.40;2.30;;;18.00;92.80;;;;;;4996068;28;20407;-67
2022/08/07 05:38:42;;;;;;;2.00;1.90;;;18.00;93.00;;;;;;4996026;28;20415;-68
2022/08/07 05:41:09;;;;;;;2.03;1.93;;;18.00;93.10;;;;;;4995918;28;20491;-67
2022/08/07 05:43:35;;;;;;;2.37;2.27;;;17.90;93.10;;;;;;4995187;28;20490;-67
2022/08/07 05:46:03;;;;;;;3.90;2.37;;;17.90;93.40;;;;;;4995168;28;20521;-67
2022/08/07 05:48:29;;;;;;;2.73;2.60;;;17.90;93.40;;;;;;4995495;28;20473;-69
2022/08/07 05:50:57;;;;;;;2.83;2.27;;;17.90;93.80;;;;;;4995514;28;20409;-68
2022/08/07 05:53:22;;;;;;;2.97;2.43;;;17.80;93.80;;;;;;4994955;28;20435;-68
2022/08/07 05:55:49;;;;;;;2.60;2.40;;;17.90;93.90;;;;;;4995432;28;20411;-67
2022/08/07 05:58:15;;;;;;;2.60;2.40;;;17.90;94.40;;;;;;4995533;28;20185;-68
2022/08/07 06:00:45;;;;;;;2.60;2.50;;;17.90;94.80;;;;;;4994994;28;20463;-69
2022/08/07 06:03:11;;;;;;;2.70;2.50;;;17.90;94.80;;;;;;4994868;28;20447;-68
2022/08/07 06:05:37;;;;;;;2.60;2.40;;;17.90;95.00;;;;;;4994947;28;20956;-68
2022/08/07 06:08:03;;;;;;;2.00;1.90;;;18.00;95.40;;;;;;4995238;28;20417;-68
2022/08/07 06:10:29;;;;;;;3.60;2.20;;;18.00;95.90;;;;;;4994888;28;20455;-69
2022/08/07 06:12:55;;;;;;;2.67;2.50;;;18.10;96.40;;;;;;4994845;28;20413;-67
2022/08/07 06:15:22;;;;;;;2.40;2.27;;;18.20;96.60;;;;;;4994884;28;20556;-69
2022/08/07 06:17:48;;;;;;;2.10;2.00;;;18.40;96.00;;;;;;4994998;28;20444;-67
2022/08/07 06:20:14;;;;;;;2.20;2.10;;;18.60;95.60;;;;;;4995105;28;20461;-69
2022/08/07 06:22:41;;;;;;;2.77;2.57;;;18.90;95.10;;;;;;4993385;28;21198;-68
2022/08/07 06:25:07;;;;;;;2.80;2.60;;;19.10;94.40;;;;;;4994260;28;20485;-69
2022/08/07 06:27:33;;;;;;;2.30;2.20;;;19.10;93.90;;;;;;4994995;28;20879;-68
2022/08/07 06:30:00;;;;;;;2.63;2.53;;;19.00;93.70;;;;;;4994678;28;20503;-68
2022/08/07 06:32:25;;;;;;;2.57;2.40;;;18.90;94.10;;;;;;4994036;28;20189;-69
2022/08/07 06:34:51;;;;;;;2.63;2.53;;;18.90;94.60;;;;;;4994640;28;20444;-68
2022/08/07 06:37:17;;;;;;;2.70;2.50;;;18.80;94.80;;;;;;4994166;28;20213;-68
2022/08/07 06:39:42;;;;;;;2.30;2.20;;;18.90;94.90;;;;;;4994786;28;20178;-69
2022/08/07 06:42:14;;;;;;;2.53;2.33;;;19.00;95.00;;;;;;4994610;28;20175;-67
2022/08/07 06:44:42;;;;;;;3.20;2.60;;;19.10;95.60;;;;;;4994307;28;20281;-67
2022/08/07 06:47:08;;;;;;;2.70;2.50;;;19.30;96.40;;;;;;4994483;28;20413;-67
2022/08/07 06:49:33;;;;;;;3.47;3.17;;;19.40;96.80;;;;;;4994538;28;20486;-68
2022/08/07 06:52:02;;;;;;;2.73;2.53;;;19.60;96.90;;;;;;4993991;28;20231;-68
2022/08/07 06:54:28;;;;;;;3.40;3.10;;;19.80;96.30;;;;;;4993716;28;20191;-68
2022/08/07 06:56:55;;;;;;;3.00;2.80;;;19.90;95.90;;;;;;4994098;28;20832;-68
2022/08/07 06:59:25;;;;;;;3.10;2.40;;;20.00;95.60;;;;;;4993955;28;20373;-68
2022/08/07 07:01:52;;;;;;;3.93;2.70;;;20.10;95.80;;;;;;4994381;28;20402;-69
2022/08/07 07:04:19;;;;;;;3.17;2.87;;;20.20;95.40;;;;;;4993812;28;20525;-67
2022/08/07 07:06:45;;;;;;;3.17;2.33;;;20.20;95.50;;;;;;4993846;28;20454;-70
2022/08/07 07:09:25;;;;;;;2.73;2.63;;;20.30;94.60;;;;;;4994236;28;20461;-71
2022/08/07 07:12:00;;;;;;;2.53;2.43;;;20.40;94.40;;;;;;4994246;28;20414;-70
2022/08/07 07:14:28;;;;;;;2.90;2.70;;;20.30;94.50;;;;;;4993455;28;20778;-68
2022/08/07 07:16:57;;;;;;;2.60;2.40;;;20.30;94.70;;;;;;4994067;28;20864;-68
2022/08/07 07:19:31;;;;;;;2.60;2.40;;;20.30;94.40;;;;;;4994109;28;20407;-69
2022/08/07 07:21:57;;;;;;;2.80;2.60;;;20.40;94.20;;;;;;4994124;28;20430;-70
2022/08/07 07:24:23;;;;;;;2.27;2.13;;;20.60;93.90;;;;;;4993568;28;20425;-68
2022/08/07 07:26:52;;;;;;;3.10;2.90;;;20.70;93.90;;;;;;4993576;28;20506;-71
2022/08/07 07:29:23;;;;;;;2.40;2.20;;;20.80;93.80;;;;;;4994035;28;20402;-69
2022/08/07 07:31:54;;;;;;;2.10;2.00;;;21.10;93.10;;;;;;4993833;28;20518;-70
2022/08/07 07:34:24;;;;;;;1.80;1.70;;;21.30;91.70;;;;;;4993394;28;20431;-69
2022/08/07 07:36:50;;;;;;;1.60;1.53;;;21.40;91.20;;;;;;4994043;28;20413;-69
2022/08/07 07:39:17;;;;;;;1.87;1.77;;;21.50;90.80;;;;;;4993875;28;20399;-68
2022/08/07 07:41:48;;;;;;;1.93;1.83;;;21.70;90.70;;;;;;4993666;28;20419;-70
2022/08/07 07:44:15;;;;;;;1.87;1.77;;;22.00;90.60;;;;;;4993420;28;20503;-68
2022/08/07 07:46:42;;;;;;;2.13;1.80;;;22.30;88.70;;;;;;4993693;28;20963;-69
2022/08/07 07:49:10;;;;;;;1.73;1.63;;;22.70;88.10;;;;;;4996315;28;20399;-68
2022/08/07 07:51:37;;;;;;;1.87;1.77;;;23.40;84.00;;;;;;4997992;28;20397;-70
2022/08/07 07:54:04;;;;;;;1.70;1.60;;;24.10;81.30;;;;;;4997204;28;20422;-69
2022/08/07 07:56:31;;;;;;;3.03;1.80;;;24.80;78.30;;;;;;4997482;28;20458;-68
2022/08/07 07:59:03;;;;;;;1.70;1.60;;;25.50;76.60;;;;;;4997643;28;20402;-70
2022/08/07 08:01:33;;;;;;;1.63;1.53;;;26.40;73.80;;;;;;4997529;28;20943;-69
2022/08/07 08:04:03;;;;;;;2.17;1.47;;;27.10;69.40;;;;;;4997125;28;20808;-69
2022/08/07 08:06:32;;;;;;;1.73;1.63;;;27.60;67.20;;;;;;4997408;28;20543;-69
2022/08/07 08:09:00;;;;;;;1.70;1.70;;;28.10;65.70;;;;;;4997210;28;20410;-70
2022/08/07 08:11:25;;;;;;;1.93;1.83;;;28.60;63.90;;;;;;4996766;28;20489;-69
2022/08/07 08:13:51;;;;;;;1.80;1.70;;;29.30;62.60;;;;;;4996857;28;20477;-69
2022/08/07 08:16:20;;;;;;;1.60;1.50;;;30.00;59.90;;;;;;4997144;28;20704;-71
2022/08/07 08:18:47;;;;;;;1.80;1.70;;;30.70;57.90;;;;;;4997254;28;20179;-69
2022/08/07 08:27:10;;;;;;;2.10;1.90;;;33.20;52.80;;;;;;4997139;28;20456;-71
2022/08/07 08:29:53;;;;;;;1.77;1.67;;;33.30;50.60;;;;;;4997269;28;20376;-69
2022/08/07 08:32:25;;;;;;;1.43;1.43;;;33.20;50.80;;;;;;4996840;28;20388;-69
2022/08/07 08:34:53;;;;;;;1.80;1.70;;;33.60;50.50;;;;;;4996537;28;20462;-70
2022/08/07 08:37:20;;;;;;;1.67;1.57;;;33.80;48.90;;;;;;4997145;28;20859;-70
2022/08/07 08:39:48;;;;;;;1.20;1.20;;;33.90;49.10;;;;;;4997058;28;20481;-70
2022/08/07 08:42:24;;;;;;;1.30;1.17;;;34.00;47.40;;;;;;4996924;28;20374;-71
2022/08/07 08:45:13;;;;;;;1.20;1.10;;;33.80;46.10;;;;;;4996576;28;20401;-73
2022/08/07 08:47:54;;;;;;;1.20;1.20;;;33.10;46.10;;;;;;4996988;28;20399;-70
2022/08/07 08:51:06;;;;;;;1.73;1.63;;;32.30;46.30;;;;;;4996465;28;20504;-70
2022/08/07 08:54:00;;;;;;;1.67;1.57;;;32.30;47.30;;;;;;4979289;28;20593;-69
2022/08/07 08:56:43;;;;;;;2.07;1.60;;;32.00;46.20;;;;;;4996186;28;20413;-69
2022/08/07 08:59:40;;;;;;;1.03;1.03;;;31.80;47.30;;;;;;4996330;28;20539;-69
2022/08/07 09:02:11;;;;;;;1.30;1.30;;;32.00;46.70;;;;;;4917433;29;20386;-72
2022/08/07 09:04:39;;;;;;;1.87;1.63;;;32.30;46.80;;;;;;4916794;29;20412;-70
2022/08/07 09:07:14;;;;;;;1.10;1.10;;;32.40;46.40;;;;;;4917538;29;20432;-71
2022/08/07 09:10:09;;;;;;;1.37;1.37;;;32.40;47.10;;;;;;4917456;29;20919;-74
2022/08/07 09:12:53;;;;;;;1.20;1.20;;;32.80;46.60;;;;;;4915462;29;20405;-69
2022/08/07 09:15:24;;;;;;;1.40;1.40;;;33.10;46.20;;;;;;4898337;29;20976;-72
2022/08/07 09:18:08;;;;;;;1.40;1.23;;;32.90;44.20;;;;;;4898303;29;20390;-69
2022/08/07 09:20:51;;;;;;;1.60;1.53;;;32.60;44.30;;;;;;4898343;29;20397;-70
2022/08/07 09:23:31;;;;;;;1.30;1.30;;;32.10;44.30;;;;;;4897974;29;20433;-70
2022/08/07 09:25:59;;;;;;;1.10;1.10;;;31.70;43.90;;;;;;4914728;29;20970;-70
2022/08/07 09:28:39;;;;;;;1.17;1.17;;;31.40;44.00;;;;;;4917307;29;20524;-70
2022/08/07 09:31:23;;;;;;;1.20;1.20;;;31.20;44.60;;;;;;4917142;29;20376;-70
2022/08/07 09:34:06;;;;;;;1.13;1.13;;;31.00;44.60;;;;;;4917134;29;20438;-70
2022/08/07 09:36:38;;;;;;;1.30;1.20;;;30.90;44.20;;;;;;4915529;29;20408;-70
2022/08/07 09:39:21;;;;;;;1.33;1.33;;;30.80;44.70;;;;;;4945869;28;20413;-69
2022/08/07 09:42:14;;;;;;;1.20;1.20;;;30.60;44.90;;;;;;4976253;28;20455;-70
2022/08/07 09:44:51;;;;;;;1.13;1.13;;;30.30;44.90;;;;;;4975935;28;20402;-70
2022/08/07 09:47:22;;;;;;;1.30;1.30;;;30.60;44.30;;;;;;4976226;28;20394;-70
2022/08/07 09:49:50;;;;;;;0.90;0.90;;;31.30;44.60;;;;;;4976458;28;20745;-69
2022/08/07 09:52:46;;;;;;;1.00;1.00;;;31.80;43.90;;;;;;4991840;28;20390;-70
2022/08/07 09:55:25;;;;;;;1.13;1.13;;;32.30;42.80;;;;;;4995442;28;20409;-70
2022/08/07 09:57:59;;;;;;;1.17;1.07;;;32.90;42.50;;;;;;4995544;28;20382;-68
2022/08/07 10:00:33;;;;;;;2.83;1.10;;;33.30;41.50;;;;;;4995399;28;20373;-70
2022/08/07 10:03:35;;;;;;;1.73;1.63;;;33.20;41.60;;;;;;4995157;28;20481;-69
2022/08/07 10:06:38;;;;;;;1.60;1.53;;;33.40;41.00;;;;;;4975481;28;20440;-68
2022/08/07 10:09:19;;;;;;;2.70;2.50;;;33.40;41.20;;;;;;4975861;28;20480;-69
2022/08/07 10:11:50;;;;;;;1.63;1.60;;;33.60;40.90;;;;;;4975307;28;20382;-68
2022/08/07 10:14:34;;;;;;;2.43;2.00;;;33.70;41.30;;;;;;4975015;28;20424;-68
2022/08/07 10:17:31;;;;;;;1.80;1.70;;;33.40;41.50;;;;;;4975664;28;20394;-68
2022/08/07 10:20:19;;;;;;;1.20;1.20;;;33.50;41.30;;;;;;4980936;28;20755;-69
2022/08/07 10:22:47;;;;;;;1.40;1.40;;;33.90;40.90;;;;;;4994629;28;20481;-70
2022/08/07 10:25:48;;;;;;;1.20;1.20;;;34.40;40.60;;;;;;4994917;28;20471;-72
2022/08/07 10:28:42;;;;;;;1.07;1.07;;;34.60;40.20;;;;;;4994427;28;20430;-70
2022/08/07 10:31:33;;;;;;;1.73;1.63;;;34.70;40.40;;;;;;4994944;28;20393;-71
2022/08/07 10:34:17;;;;;;;1.20;1.10;;;34.70;40.50;;;;;;4994256;28;20422;-69
2022/08/07 10:36:49;;;;;;;1.53;1.43;;;34.80;40.10;;;;;;4994821;28;20450;-72
2022/08/07 10:39:20;;;;;;;1.77;1.67;;;34.50;39.90;;;;;;4994714;28;20910;-70
2022/08/07 10:41:56;;;;;;;1.50;1.40;;;33.50;40.70;;;;;;4994430;28;20442;-71
2022/08/07 10:44:33;;;;;;;1.90;1.33;;;33.20;41.50;;;;;;4994317;28;20451;-70
2022/08/07 10:47:01;;;;;;;1.13;1.13;;;33.10;41.20;;;;;;4994656;28;20436;-70
2022/08/07 10:49:43;;;;;;;1.37;1.27;;;33.00;41.80;;;;;;4994419;28;20438;-70
2022/08/07 10:52:20;;;;;;;1.27;1.27;;;33.10;41.60;;;;;;4994748;28;20395;-69
2022/08/07 10:54:58;;;;;;;1.00;1.00;;;33.10;41.00;;;;;;4994138;28;20457;-71
2022/08/07 10:57:44;;;;;;;1.13;1.10;;;33.20;41.40;;;;;;4994474;28;20924;-70
2022/08/07 11:00:14;;;;;;;0.93;0.93;;;33.00;41.60;;;;;;4994435;28;20402;-70
2022/08/07 11:03:13;;;;;;;1.23;1.23;;;32.80;41.30;;;;;;4993768;28;20401;-68
2022/08/07 11:05:55;;;;;;;0.90;0.90;;;32.90;41.50;;;;;;4969411;28;20445;-69
2022/08/07 11:08:42;;;;;;;2.20;1.13;;;32.60;42.10;;;;;;4994136;28;20381;-68
2022/08/07 11:11:16;;;;;;;1.33;1.23;;;32.40;42.10;;;;;;4993946;28;20393;-70
2022/08/07 11:14:01;;;;;;;1.10;1.10;;;32.00;42.40;;;;;;4993855;28;20473;-68
2022/08/07 11:16:48;;;;;;;1.10;1.10;;;32.00;42.80;;;;;;4994132;28;20803;-69
2022/08/07 11:19:21;;;;;;;1.43;1.33;;;31.40;42.60;;;;;;4994280;28;20377;-67
2022/08/07 11:22:09;;;;;;;1.70;1.60;;;30.50;43.10;;;;;;4993772;28;20361;-69
2022/08/07 11:24:52;;;;;;;1.97;1.87;;;29.40;44.80;;;;;;4991606;28;20438;-68
2022/08/07 11:27:32;;;;;;;1.10;1.10;;;28.80;45.60;;;;;;4993579;28;20434;-68
2022/08/07 11:30:04;;;;;;;1.83;1.73;;;28.40;45.30;;;;;;4994004;28;20398;-67
2022/08/07 11:32:35;;;;;;;1.30;1.30;;;28.00;46.30;;;;;;4993828;28;20742;-68
2022/08/07 11:35:09;;;;;;;4.20;3.80;;;27.50;46.00;;;;;;4993941;28;20429;-68
2022/08/07 11:38:00;;;;;;;1.83;1.73;;;27.10;46.90;;;;;;4994034;28;20386;-68
2022/08/07 11:40:50;;;;;;;1.30;1.20;;;26.80;47.60;;;;;;4993575;28;20398;-68
2022/08/07 11:43:20;;;;;;;8.53;7.63;;;26.80;48.20;;;;;;4993543;28;20403;-70
2022/08/07 11:46:12;;;;;;;2.90;2.70;;;26.60;48.20;;;;;;4992626;28;20946;-68
2022/08/07 11:48:57;;;;;;;11.37;8.90;;;26.40;48.20;;;;;;4993802;28;20430;-69
2022/08/07 11:51:45;;;;;;;3.07;2.80;;;26.30;48.00;;;;;;4994005;28;20437;-70
2022/08/07 11:54:56;;;;;;;2.73;2.53;;;26.20;48.30;;;;;;4993026;28;20446;-68
2022/08/07 11:57:48;;;;;;;1.63;1.53;;;26.20;48.70;;;;;;4994065;28;20377;-70
2022/08/07 12:00:28;;;;;;;1.60;1.50;;;26.30;48.80;;;;;;4993793;28;20402;-70
2022/08/07 12:02:56;;;;;;;1.60;1.50;;;26.30;48.30;;;;;;4993426;28;20388;-68
2022/08/07 12:05:28;;;;;;;0.93;0.93;;;26.30;48.60;;;;;;4993413;28;20469;-70
2022/08/07 12:08:07;;;;;;;1.60;1.50;;;26.40;47.90;;;;;;4993511;28;20858;-69
2022/08/07 12:10:44;;;;;;;1.10;1.00;;;26.40;48.30;;;;;;4993860;28;20403;-68
2022/08/07 12:13:17;;;;;;;1.00;1.00;;;26.40;47.90;;;;;;4992117;28;20411;-69
2022/08/07 12:16:08;;;;;;;0.67;0.67;;;26.40;47.70;;;;;;4993110;28;20424;-68
2022/08/07 12:19:13;;;;;;;0.97;0.97;;;26.30;48.10;;;;;;4991959;28;20931;-68
2022/08/07 12:21:54;;;;;;;1.00;1.00;;;26.30;48.50;;;;;;4965712;28;20421;-69
2022/08/07 12:24:24;;;;;;;1.00;1.00;;;26.40;48.60;;;;;;4993111;28;21007;-69
2022/08/07 12:26:57;;;;;;;0.97;0.97;;;26.40;48.70;;;;;;4993459;28;20609;-68
2022/08/07 12:29:42;;;;;;;0.70;0.70;;;26.50;48.10;;;;;;4992382;28;20385;-69
2022/08/07 12:32:18;;;;;;;1.20;1.20;;;26.50;48.00;;;;;;4993213;28;20409;-69
2022/08/07 12:34:45;;;;;;;1.23;0.87;;;26.40;48.10;;;;;;4994750;28;20426;-69
2022/08/07 12:37:12;;;;;;;1.00;1.00;;;26.40;49.00;;;;;;4995706;28;20413;-69
2022/08/07 12:39:41;;;;;;;1.10;1.10;;;26.50;48.80;;;;;;4996834;28;20943;-70
2022/08/07 12:42:09;;;;;;;1.00;1.00;;;26.60;48.20;;;;;;4996582;28;20461;-69
2022/08/07 12:44:37;;;;;;;1.40;1.40;;;26.60;48.60;;;;;;4995916;28;20434;-68
2022/08/07 12:47:21;;;;;;;1.00;1.00;;;26.50;48.50;;;;;;4997142;28;20429;-70
2022/08/07 12:50:28;;;;;;;1.00;1.00;;;26.60;48.30;;;;;;4996620;28;20964;-70
2022/08/07 12:53:04;;;;;;;1.00;1.00;;;26.70;48.00;;;;;;4975994;28;20414;-68
2022/08/07 12:55:35;;;;;;;0.97;0.97;;;26.70;48.60;;;;;;4996781;28;20502;-70
2022/08/07 12:58:04;;;;;;;1.13;1.13;;;26.70;48.90;;;;;;4996360;28;20463;-69
2022/08/07 13:01:06;;;;;;;0.93;0.93;;;26.80;48.80;;;;;;4996156;28;20921;-68
2022/08/07 13:03:59;;;;;;;1.33;1.23;;;26.80;48.30;;;;;;4991992;28;20473;-70
2022/08/07 13:06:43;;;;;;;1.20;1.20;;;26.80;48.40;;;;;;4996081;28;20472;-68
2022/08/07 13:09:27;;;;;;;1.20;1.10;;;26.80;48.80;;;;;;4996313;28;20736;-69
2022/08/07 13:12:30;;;;;;;0.87;0.87;;;26.80;48.30;;;;;;4996181;28;20889;-70
2022/08/07 13:15:08;;;;;;;1.00;1.00;;;26.80;48.30;;;;;;4995789;28;20433;-71
2022/08/07 13:18:02;;;;;;;2.40;1.10;;;26.80;49.10;;;;;;4996099;28;20417;-68
2022/08/07 13:20:38;;;;;;;1.23;1.00;;;26.90;48.40;;;;;;4996322;28;20908;-67
2022/08/07 13:23:12;;;;;;;1.40;1.30;;;27.00;48.60;;;;;;4995497;28;20925;-70
2022/08/07 13:26:13;;;;;;;1.20;1.20;;;27.10;48.50;;;;;;4996119;28;21009;-69
2022/08/07 13:28:57;;;;;;;1.40;1.10;;;27.20;48.20;;;;;;4987701;28;20426;-68
2022/08/07 13:31:39;;;;;;;0.93;0.93;;;27.20;48.20;;;;;;4995478;28;20462;-69
2022/08/07 13:34:45;;;;;;;0.90;0.90;;;27.30;47.70;;;;;;4995295;28;20422;-69
2022/08/07 13:37:40;;;;;;;1.10;1.10;;;27.30;47.50;;;;;;4995801;28;20406;-67
2022/08/07 13:40:33;;;;;;;0.80;0.80;;;27.40;47.20;;;;;;4995075;28;20431;-69
2022/08/07 13:43:05;;;;;;;1.00;0.90;;;27.40;47.20;;;;;;4994958;28;20419;-69
2022/08/07 13:45:33;;;;;;;0.90;0.90;;;27.30;47.00;;;;;;4994979;28;20446;-69
2022/08/07 13:48:03;;;;;;;1.87;1.77;;;27.30;47.10;;;;;;4995657;28;20802;-70
2022/08/07 13:50:29;;;;;;;1.00;1.00;;;27.30;47.50;;;;;;4995591;28;20390;-69
2022/08/07 13:52:57;;;;;;;1.03;1.03;;;27.30;47.00;;;;;;4995059;28;20413;-69
2022/08/07 13:55:24;;;;;;;1.13;1.13;;;27.40;47.10;;;;;;4994924;28;20453;-68
2022/08/07 13:57:59;;;;;;;1.00;1.00;;;27.40;46.80;;;;;;4995485;28;20491;-70
2022/08/07 14:00:35;;;;;;;1.63;1.53;;;27.40;46.70;;;;;;4995336;28;20406;-69
2022/08/07 14:03:05;;;;;;;1.07;1.07;;;27.40;46.60;;;;;;4994853;28;20919;-68
2022/08/07 14:05:30;;;;;;;1.13;1.13;;;27.30;47.20;;;;;;4994873;28;20833;-68
2022/08/07 14:07:58;;;;;;;1.10;1.10;;;27.30;46.50;;;;;;4995098;28;20407;-69
2022/08/07 14:10:24;;;;;;;0.90;0.90;;;27.40;46.80;;;;;;4995414;28;20214;-69
2022/08/07 14:13:01;;;;;;;1.33;1.23;;;27.50;46.40;;;;;;4995317;28;20490;-71
2022/08/07 14:15:29;;;;;;;1.13;1.03;;;27.50;46.50;;;;;;4996881;28;20454;-68
2022/08/07 14:18:02;;;;;;;1.07;1.00;;;27.40;46.40;;;;;;4996252;28;20962;-70
2022/08/07 14:20:31;;;;;;;1.80;1.10;;;27.40;46.80;;;;;;4995758;28;20758;-69
2022/08/07 14:23:07;;;;;;;1.27;1.20;;;27.50;46.70;;;;;;4995945;28;20439;-68
2022/08/07 14:25:35;;;;;;;1.07;1.07;;;27.50;46.70;;;;;;4995185;28;20470;-68
2022/08/07 14:28:06;;;;;;;0.83;0.83;;;27.50;46.60;;;;;;4995106;28;20473;-69
2022/08/07 14:30:33;;;;;;;1.00;1.00;;;27.50;46.60;;;;;;4994816;28;20399;-68
2022/08/07 14:33:02;;;;;;;1.10;1.10;;;27.50;46.80;;;;;;4994600;28;20418;-69
2022/08/07 14:35:34;;;;;;;1.50;1.40;;;27.50;47.00;;;;;;4994836;28;20415;-71
2022/08/07 14:38:01;;;;;;;1.33;1.33;;;27.50;47.00;;;;;;4994755;28;20801;-70
2022/08/07 14:40:31;;;;;;;0.90;0.90;;;27.50;46.90;;;;;;4994880;28;20421;-70
2022/08/07 14:43:08;;;;;;;1.00;1.00;;;27.50;46.60;;;;;;4994241;28;20419;-71
2022/08/07 14:45:40;;;;;;;1.00;1.00;;;27.60;46.50;;;;;;4994617;28;20553;-67
2022/08/07 14:48:06;;;;;;;1.20;1.20;;;27.50;47.00;;;;;;4994651;28;20410;-69
2022/08/07 14:50:33;;;;;;;0.80;0.80;;;27.50;47.30;;;;;;4994496;28;20386;-68
2022/08/07 14:53:00;;;;;;;0.93;0.93;;;27.60;47.10;;;;;;4994063;28;20738;-70
2022/08/07 14:55:32;;;;;;;1.03;1.00;;;27.60;46.80;;;;;;4994358;28;20444;-68
2022/08/07 14:57:59;;;;;;;1.43;1.33;;;27.60;46.50;;;;;;4994541;28;20421;-68
2022/08/07 15:00:30;;;;;;;1.47;1.37;;;27.60;46.70;;;;;;4994354;28;20764;-68
2022/08/07 15:03:03;;;;;;;0.87;0.87;;;27.70;46.80;;;;;;4994079;28;20426;-69
2022/08/07 15:05:30;;;;;;;1.40;1.40;;;27.60;46.40;;;;;;4993836;28;20952;-69
2022/08/07 15:07:57;;;;;;;2.20;1.47;;;27.50;46.80;;;;;;4994107;28;20409;-69
2022/08/07 15:10:26;;;;;;;1.00;1.00;;;27.50;46.80;;;;;;4994165;28;20732;-70
2022/08/07 15:12:56;;;;;;;1.20;1.20;;;27.40;46.80;;;;;;4993683;28;20403;-68
2022/08/07 15:15:31;;;;;;;1.10;1.10;;;27.40;46.90;;;;;;4994079;28;20435;-70
2022/08/07 15:18:04;;;;;;;1.30;1.20;;;27.40;46.70;;;;;;4993042;28;20472;-69
2022/08/07 15:20:36;;;;;;;2.70;2.50;;;27.40;46.50;;;;;;4993824;28;20433;-68
2022/08/07 15:23:04;;;;;;;1.33;1.20;;;27.30;46.90;;;;;;4993864;28;20430;-69
2022/08/07 15:25:36;;;;;;;0.80;0.80;;;27.20;47.00;;;;;;4994306;28;20537;-68
2022/08/07 15:28:05;;;;;;;1.60;1.50;;;27.10;47.20;;;;;;4993972;28;20438;-69
2022/08/07 15:30:33;;;;;;;1.13;1.13;;;27.10;47.40;;;;;;4994158;28;20381;-69
2022/08/07 15:33:00;;;;;;;1.20;1.20;;;27.10;47.20;;;;;;4993151;28;20459;-69
2022/08/07 15:35:27;;;;;;;0.93;0.93;;;27.10;47.30;;;;;;4993761;28;20430;-69
2022/08/07 15:37:56;;;;;;;1.10;1.10;;;27.10;47.20;;;;;;4994111;28;20457;-68
2022/08/07 15:40:24;;;;;;;2.63;1.50;;;27.00;47.40;;;;;;4993860;28;20414;-68
2022/08/07 15:42:55;;;;;;;1.20;1.20;;;27.00;48.00;;;;;;4993579;28;20525;-68
2022/08/07 15:45:21;;;;;;;1.13;1.13;;;26.90;47.60;;;;;;4993584;28;20454;-69
2022/08/07 15:47:59;;;;;;;1.30;1.20;;;26.90;47.80;;;;;;4993395;28;20927;-70
2022/08/07 15:50:38;;;;;;;1.40;1.40;;;26.90;48.00;;;;;;4993727;28;20175;-70
2022/08/07 15:53:13;;;;;;;1.30;1.30;;;26.90;48.00;;;;;;4993111;28;20438;-70
2022/08/07 15:55:42;;;;;;;1.20;1.10;;;26.90;47.70;;;;;;4993813;28;20385;-70
2022/08/07 15:58:12;;;;;;;1.23;1.23;;;26.80;47.60;;;;;;4993500;28;20392;-68
2022/08/07 16:00:38;;;;;;;2.60;1.23;;;26.80;47.90;;;;;;4993436;28;20434;-67
2022/08/07 16:03:13;;;;;;;1.20;1.20;;;26.80;48.20;;;;;;4993392;28;20769;-71
2022/08/07 16:05:43;;;;;;;1.17;1.07;;;26.80;48.00;;;;;;4993604;28;20823;-70
2022/08/07 16:08:12;;;;;;;1.20;1.20;;;26.80;48.20;;;;;;4993906;28;20399;-71
2022/08/07 16:10:41;;;;;;;1.00;1.00;;;26.80;47.70;;;;;;4996934;28;20421;-69
2022/08/07 16:13:27;;;;;;;1.80;1.70;;;26.70;47.70;;;;;;4996948;28;20399;-70
2022/08/07 16:16:04;;;;;;;2.10;2.00;;;26.70;47.80;;;;;;4995365;28;20469;-69
2022/08/07 16:18:33;;;;;;;1.10;1.00;;;26.70;48.00;;;;;;4997476;28;20408;-69
2022/08/07 16:21:11;;;;;;;1.30;1.20;;;26.70;47.80;;;;;;4996668;28;20430;-68
2022/08/07 16:24:11;;;;;;;1.13;1.13;;;26.70;47.50;;;;;;4986221;28;20456;-69
2022/08/07 16:26:55;;;;;;;1.10;1.10;;;26.60;47.70;;;;;;4997173;28;20509;-69
2022/08/07 16:29:30;;;;;;;1.50;1.50;;;26.50;47.90;;;;;;4997127;28;20457;-69
2022/08/07 16:32:07;;;;;;;1.50;1.40;;;26.50;47.80;;;;;;4997204;28;20832;-68
2022/08/07 16:34:56;;;;;;;1.37;1.30;;;26.50;48.10;;;;;;4996603;28;20430;-69
2022/08/07 16:37:50;;;;;;;1.30;1.30;;;26.50;47.50;;;;;;4996767;28;20427;-68
2022/08/07 16:40:55;;;;;;;1.40;1.30;;;26.50;47.00;;;;;;4996666;28;20410;-69
2022/08/07 16:43:40;;;;;;;1.60;1.30;;;26.50;46.50;;;;;;4996273;28;20493;-69
2022/08/07 16:46:25;;;;;;;1.40;1.30;;;26.40;46.60;;;;;;4996765;28;20449;-68
2022/08/07 16:49:02;;;;;;;1.03;1.03;;;26.40;46.60;;;;;;4996374;28;20936;-69
2022/08/07 16:51:45;;;;;;;0.83;0.83;;;26.30;46.80;;;;;;4996963;28;20369;-69
2022/08/07 16:54:26;;;;;;;1.20;1.20;;;26.30;46.80;;;;;;4996192;28;20469;-70
2022/08/07 16:57:10;;;;;;;3.17;1.10;;;26.30;47.20;;;;;;4996690;28;20450;-70
2022/08/07 17:00:00;;;;;;;1.70;0.97;;;26.30;47.10;;;;;;4996716;28;20480;-70
2022/08/07 17:02:59;;;;;;;1.13;1.13;;;26.30;47.00;;;;;;4996121;28;20402;-69
2022/08/07 17:05:58;;;;;;;1.23;1.20;;;26.20;47.00;;;;;;4995883;28;20466;-67
2022/08/07 17:09:16;;;;;;;1.43;1.40;;;26.20;47.10;;;;;;4996674;28;20494;-71
2022/08/07 17:11:54;;;;;;;1.10;1.10;;;26.10;46.90;;;;;;4964530;28;20743;-69
2022/08/07 17:14:50;;;;;;;1.30;1.20;;;26.10;46.90;;;;;;4995762;28;20463;-69
2022/08/07 17:17:41;;;;;;;0.90;0.90;;;26.10;46.90;;;;;;4996296;28;20414;-67
2022/08/07 17:20:34;;;;;;;1.03;0.93;;;26.00;46.80;;;;;;4995010;28;20438;-70
2022/08/07 17:23:26;;;;;;;1.23;1.13;;;25.90;47.00;;;;;;4995751;28;20414;-69
2022/08/07 17:26:17;;;;;;;1.10;1.10;;;25.90;47.20;;;;;;4968363;28;21059;-68
2022/08/07 17:28:57;;;;;;;1.30;1.20;;;25.90;47.10;;;;;;4996131;28;20434;-67
2022/08/07 17:31:47;;;;;;;1.33;1.33;;;25.90;47.20;;;;;;4996084;28;20438;-70
2022/08/07 17:34:18;;;;;;;1.20;1.20;;;25.90;47.30;;;;;;4995271;28;20450;-75
2022/08/07 17:36:49;;;;;;;1.97;1.77;;;25.90;47.20;;;;;;4995500;28;20431;-71
2022/08/07 17:39:39;;;;;;;1.37;1.37;;;25.80;47.50;;;;;;4994557;28;20421;-70
2022/08/07 17:42:14;;;;;;;1.30;1.30;;;25.80;47.50;;;;;;4995851;28;20928;-72